Terminal Aerodrome Forecast
Issued by NWS

Home | Current Version | Previous Version | Text Only | Print | Product List | Glossary On
Versions: 1 2 3 4 5 6 7 8 9 10 11 12
752
FTUS42 KGSP 222329
TAFGMU
TAF
KGMU 222329Z 2300/2324 22004KT P6SM SCT250
     FM231700 23010KT P6SM SCT050 BKN250 PROB30 2319/2324 4SM -TSRA
      OVC040CB=

USA.gov is the U.S. government's official web portal to all federal, state and local government web resources and services.